Tampa, Florida
Traffic Map
Current Weather Conditions
Tampa, Florida
Few Clouds
Few Clouds
26°
Feels Like: 27°
Wind Chill: 26° Ceiling: Unl
Heat Index: 27° Visibility: 10mi
Dew Point: 23° Wind: 5mph
Humidity: 84% Direction: 140° (SE)
Pressure: 30.06in Gusts: 0mph
Raw Report DataKTPA 230653Z 14004KT 10SM FEW250 26/23 A3006 RMK AO2 SLP177 T02560228
Traffic Incident Summary
Active as of:
Severity:
Category:
InformationThere was an issue retrieving the traffic information for this location. Please try a different location or try again shortly.
Advertisements
Track Severe Weather on mobile